createdAt,value
2023-01-13T00:01:58.833Z,18.15
2023-01-13T00:04:25.559Z,16.23
2023-01-13T00:06:52.540Z,17.55
2023-01-13T00:09:19.169Z,15.48
2023-01-13T00:11:49.026Z,16.08
2023-01-13T00:14:19.635Z,16.27
2023-01-13T00:16:46.395Z,15.40
2023-01-13T00:19:20.036Z,16.15
2023-01-13T00:21:52.217Z,16.13
2023-01-13T00:24:21.731Z,15.85
2023-01-13T00:26:48.510Z,15.00
2023-01-13T00:29:17.189Z,15.15
2023-01-13T00:31:50.205Z,14.73
2023-01-13T00:34:19.361Z,16.23
2023-01-13T00:36:46.235Z,16.35
2023-01-13T00:39:20.669Z,15.15
2023-01-13T00:42:05.972Z,15.88
2023-01-13T00:44:35.005Z,16.65
2023-01-13T00:47:02.971Z,16.55
2023-01-13T00:49:30.083Z,16.00
2023-01-13T00:51:56.708Z,15.10
2023-01-13T00:54:28.031Z,15.32
2023-01-13T00:57:04.865Z,15.85
2023-01-13T00:59:32.052Z,13.45
2023-01-13T01:02:02.241Z,14.18
2023-01-13T01:04:29.147Z,14.27
2023-01-13T01:07:00.715Z,14.30
2023-01-13T01:09:35.939Z,15.38
2023-01-13T01:12:02.883Z,15.82
2023-01-13T01:14:29.513Z,13.98
2023-01-13T01:16:57.853Z,13.93
2023-01-13T01:19:24.737Z,14.60
2023-01-13T01:21:51.387Z,14.52
2023-01-13T01:24:18.056Z,15.25
2023-01-13T01:26:44.742Z,15.02
2023-01-13T01:29:17.327Z,14.65
2023-01-13T01:31:58.021Z,14.77
2023-01-13T01:34:24.663Z,15.40
2023-01-13T01:36:51.222Z,16.63
2023-01-13T01:39:17.919Z,16.85
2023-01-13T01:42:04.454Z,17.17
2023-01-13T01:44:43.151Z,17.63
2023-01-13T01:47:14.999Z,16.05
2023-01-13T01:49:49.341Z,16.67
2023-01-13T01:52:35.102Z,17.45
2023-01-13T01:55:13.448Z,17.10
2023-01-13T01:57:47.086Z,16.48
2023-01-13T02:00:16.925Z,16.42
2023-01-13T02:02:46.481Z,17.05
2023-01-13T02:05:15.400Z,16.13
2023-01-13T02:07:52.481Z,14.57
2023-01-13T02:10:24.387Z,15.93
2023-01-13T02:12:52.716Z,15.27
2023-01-13T02:15:54.335Z,17.15
2023-01-13T02:18:55.418Z,15.73
2023-01-13T02:22:06.249Z,16.13
2023-01-13T02:25:05.443Z,15.70
2023-01-13T02:27:58.220Z,16.10
2023-01-13T02:30:49.439Z,15.50
2023-01-13T02:33:34.510Z,16.75
2023-01-13T02:36:39.804Z,16.85
2023-01-13T02:39:19.462Z,15.98
2023-01-13T02:42:23.653Z,15.45
2023-01-13T02:45:13.581Z,16.48
2023-01-13T02:47:44.656Z,16.75
2023-01-13T02:50:17.597Z,16.45
2023-01-13T02:52:50.917Z,16.60
2023-01-13T02:55:23.630Z,17.23
2023-01-13T02:57:53.157Z,15.38
2023-01-13T03:00:20.842Z,16.83
2023-01-13T03:02:49.265Z,15.88
2023-01-13T03:05:17.427Z,16.85
2023-01-13T03:07:44.041Z,16.63
2023-01-13T03:10:38.379Z,15.48
2023-01-13T03:13:47.211Z,15.02
2023-01-13T03:16:44.984Z,15.82
2023-01-13T03:19:25.123Z,14.68
2023-01-13T03:22:22.370Z,13.85
2023-01-13T03:24:55.443Z,15.07
2023-01-13T03:27:43.729Z,14.88
2023-01-13T03:30:37.261Z,15.40
2023-01-13T03:33:15.557Z,14.75
2023-01-13T03:35:50.428Z,14.25
2023-01-13T03:38:39.505Z,14.73
2023-01-13T03:41:22.198Z,13.38
2023-01-13T03:44:12.379Z,14.25
2023-01-13T03:46:57.063Z,13.50
2023-01-13T03:49:35.867Z,12.68
2023-01-13T03:52:07.503Z,14.23
2023-01-13T03:54:44.139Z,13.68
2023-01-13T03:57:19.190Z,13.07
2023-01-13T03:59:53.022Z,12.82
2023-01-13T04:02:51.529Z,12.00
2023-01-13T04:05:19.432Z,13.60
2023-01-13T04:08:09.656Z,12.27
2023-01-13T04:10:58.962Z,12.48
2023-01-13T04:13:30.247Z,12.10
2023-01-13T04:15:57.066Z,13.65
2023-01-13T04:18:30.383Z,12.18
2023-01-13T04:21:00.428Z,12.35
2023-01-13T04:23:28.217Z,12.23
2023-01-13T04:26:05.026Z,11.77
2023-01-13T04:28:38.230Z,13.02
2023-01-13T04:31:11.235Z,12.88
2023-01-13T04:33:37.997Z,12.25
2023-01-13T04:36:05.269Z,11.30
2023-01-13T04:38:38.437Z,12.10
2023-01-13T04:41:12.549Z,11.63
2023-01-13T04:43:41.347Z,11.55
2023-01-13T04:46:14.056Z,12.07
2023-01-13T04:48:42.053Z,13.05
2023-01-13T04:51:10.989Z,13.20
2023-01-13T04:53:37.620Z,12.38
2023-01-13T04:56:04.322Z,13.27
2023-01-13T04:58:31.037Z,14.02
2023-01-13T05:00:57.854Z,14.43
2023-01-13T05:06:16.611Z,13.70
2023-01-13T05:08:46.405Z,14.00
2023-01-13T05:11:33.869Z,13.70
2023-01-13T05:14:22.022Z,14.57
2023-01-13T05:17:01.864Z,14.02
2023-01-13T05:19:36.395Z,14.88
2023-01-13T05:22:29.174Z,16.05
2023-01-13T05:25:14.433Z,15.35
2023-01-13T05:27:41.462Z,20.98
2023-01-13T05:30:09.837Z,22.17
2023-01-13T05:32:37.921Z,18.88
2023-01-13T05:35:04.702Z,24.60
2023-01-13T05:37:36.438Z,24.48
2023-01-13T05:40:24.845Z,22.52
2023-01-13T05:43:21.461Z,22.85
2023-01-13T05:46:03.312Z,23.45
2023-01-13T05:48:37.457Z,21.75
2023-01-13T05:51:07.644Z,22.02
2023-01-13T05:53:36.545Z,23.08
2023-01-13T05:56:13.285Z,21.80
2023-01-13T05:58:40.378Z,24.08
2023-01-13T06:01:08.889Z,22.58
2023-01-13T06:03:36.302Z,24.65
2023-01-13T06:06:05.232Z,25.60
2023-01-13T06:08:38.670Z,26.10
2023-01-13T06:11:07.716Z,25.60
2023-01-13T06:13:34.573Z,24.65
2023-01-13T06:16:01.417Z,24.92
2023-01-13T06:18:29.181Z,22.98
2023-01-13T06:20:56.432Z,25.35
2023-01-13T06:23:23.442Z,26.77
2023-01-13T06:26:15.622Z,25.95
2023-01-13T06:28:42.266Z,26.67
2023-01-13T06:31:10.429Z,26.92
2023-01-13T06:33:49.498Z,26.85
2023-01-13T06:36:45.081Z,28.70
2023-01-13T06:39:19.058Z,31.00
2023-01-13T06:42:09.573Z,32.53
2023-01-13T06:44:36.342Z,34.58
2023-01-13T06:47:03.735Z,34.25
2023-01-13T06:49:33.351Z,35.88
2023-01-13T06:52:01.060Z,36.95
2023-01-13T06:54:27.899Z,38.67
2023-01-13T06:56:55.317Z,40.75
2023-01-13T06:59:22.823Z,38.45
2023-01-13T07:01:49.722Z,39.90
2023-01-13T07:04:30.032Z,39.50
2023-01-13T07:06:56.967Z,38.78
2023-01-13T07:09:23.597Z,40.25
2023-01-13T07:11:52.121Z,39.30
2023-01-13T07:14:42.762Z,38.55
2023-01-13T07:17:10.343Z,40.20
2023-01-13T07:19:37.891Z,40.97
2023-01-13T07:22:07.840Z,41.58
2023-01-13T07:24:34.512Z,39.63
2023-01-13T07:27:07.047Z,41.17
2023-01-13T07:29:45.408Z,38.90
2023-01-13T07:32:12.149Z,40.75
2023-01-13T07:34:38.885Z,40.55
2023-01-13T07:37:09.436Z,45.22
2023-01-13T07:39:36.097Z,42.30
2023-01-13T07:42:21.307Z,43.35
2023-01-13T07:44:50.093Z,43.47
2023-01-13T07:47:17.121Z,43.92
2023-01-13T07:50:01.650Z,45.67
2023-01-13T07:52:28.775Z,46.20
2023-01-13T07:54:55.417Z,45.50
2023-01-13T07:57:22.039Z,43.78
2023-01-13T07:59:48.793Z,45.63
2023-01-13T08:02:15.700Z,46.38
2023-01-13T08:04:42.453Z,44.08
2023-01-13T08:07:09.031Z,46.88
2023-01-13T08:09:38.011Z,45.05
2023-01-13T08:12:26.473Z,45.80
2023-01-13T08:14:54.140Z,44.42
2023-01-13T08:17:20.989Z,45.25
2023-01-13T08:19:52.627Z,46.60
2023-01-13T08:22:19.418Z,43.90
2023-01-13T08:24:46.207Z,44.72
2023-01-13T08:27:12.921Z,44.53
2023-01-13T08:29:39.498Z,43.35
2023-01-13T08:32:06.785Z,43.75
2023-01-13T08:34:33.388Z,42.83
2023-01-13T08:37:00.188Z,43.35
2023-01-13T08:39:27.086Z,42.15
2023-01-13T08:41:56.682Z,41.13
2023-01-13T08:44:25.843Z,41.15
2023-01-13T08:46:52.480Z,39.67
2023-01-13T08:49:19.126Z,40.60
2023-01-13T08:51:46.183Z,40.92
2023-01-13T08:54:14.213Z,39.20
2023-01-13T08:56:42.801Z,37.78
2023-01-13T08:59:18.902Z,40.22
2023-01-13T09:01:46.277Z,38.67
2023-01-13T09:04:21.616Z,41.03
2023-01-13T09:06:49.267Z,40.53
2023-01-13T09:09:16.042Z,44.15
2023-01-13T09:12:05.904Z,45.33
2023-01-13T09:14:34.690Z,44.47
2023-01-13T09:17:04.569Z,41.95
2023-01-13T09:19:50.689Z,42.70
2023-01-13T09:22:19.377Z,44.72
2023-01-13T09:24:46.543Z,42.92
2023-01-13T09:27:15.188Z,38.08
2023-01-13T09:29:41.923Z,41.50
2023-01-13T09:32:13.207Z,42.47
2023-01-13T09:34:58.400Z,44.50
2023-01-13T09:37:25.321Z,41.10
2023-01-13T09:39:52.009Z,44.13
2023-01-13T09:42:40.435Z,46.47
2023-01-13T09:45:17.977Z,43.80
2023-01-13T09:48:15.445Z,46.95
2023-01-13T09:50:48.043Z,45.53
2023-01-13T09:53:24.603Z,44.28
2023-01-13T09:55:51.517Z,43.47
2023-01-13T09:58:19.502Z,44.97
2023-01-13T10:00:51.446Z,46.00
2023-01-13T10:03:31.868Z,47.47
2023-01-13T10:06:07.414Z,46.17
2023-01-13T10:08:43.227Z,46.40
2023-01-13T10:11:40.625Z,40.58
2023-01-13T10:14:16.881Z,46.40
2023-01-13T10:17:19.961Z,46.47
2023-01-13T10:20:30.694Z,43.08
2023-01-13T10:23:09.058Z,39.90
2023-01-13T10:25:44.731Z,45.38
2023-01-13T10:28:14.175Z,42.10
2023-01-13T10:30:52.561Z,47.53
2023-01-13T10:33:30.325Z,48.28
2023-01-13T10:36:14.147Z,46.65
2023-01-13T10:38:50.909Z,46.58
2023-01-13T10:41:26.765Z,47.15
2023-01-13T10:44:07.722Z,47.47
2023-01-13T10:46:55.530Z,45.47
2023-01-13T10:49:40.425Z,44.05
2023-01-13T10:52:29.604Z,42.85
2023-01-13T10:54:57.416Z,42.47
2023-01-13T10:57:37.738Z,43.95
2023-01-13T11:00:26.193Z,45.08
2023-01-13T11:03:31.105Z,43.38
2023-01-13T11:06:09.008Z,43.83
2023-01-13T11:08:53.102Z,41.55
2023-01-13T11:11:42.192Z,43.63
2023-01-13T11:14:33.491Z,46.97
2023-01-13T11:17:09.709Z,43.92
2023-01-13T11:19:47.506Z,45.00
2023-01-13T11:22:21.759Z,45.70
2023-01-13T11:25:00.783Z,44.30
2023-01-13T11:27:45.162Z,43.33
2023-01-13T11:30:22.238Z,41.90
2023-01-13T11:33:15.328Z,41.17
2023-01-13T11:36:02.878Z,39.88
2023-01-13T11:39:12.090Z,38.28
2023-01-13T11:41:44.137Z,40.72
2023-01-13T11:46:43.869Z,38.60
2023-01-13T11:49:22.387Z,38.80
2023-01-13T11:52:06.662Z,39.03
2023-01-13T11:54:54.539Z,34.28
2023-01-13T11:57:46.974Z,38.58
2023-01-13T12:03:15.712Z,39.15
2023-01-13T12:05:42.433Z,38.72
2023-01-13T12:08:53.590Z,37.78
2023-01-13T12:11:34.548Z,39.30
2023-01-13T12:14:07.720Z,40.00
2023-01-13T12:16:36.511Z,38.33
2023-01-13T12:19:39.289Z,40.25
2023-01-13T12:22:16.437Z,44.15
2023-01-13T12:25:05.080Z,33.38
2023-01-13T12:27:52.944Z,42.72
2023-01-13T12:30:40.856Z,45.85
2023-01-13T12:33:24.797Z,45.05
2023-01-13T12:36:19.668Z,35.35
2023-01-13T12:38:51.846Z,50.63
2023-01-13T12:42:05.901Z,45.17
2023-01-13T12:44:40.729Z,44.53
2023-01-13T12:47:34.688Z,37.13
2023-01-13T12:50:28.368Z,48.78
2023-01-13T12:53:01.073Z,41.90
2023-01-13T12:55:33.797Z,49.00
2023-01-13T12:58:06.319Z,48.55
2023-01-13T13:00:54.992Z,47.50
2023-01-13T13:03:33.524Z,44.03
2023-01-13T13:06:20.834Z,48.53
2023-01-13T13:08:57.163Z,46.60
2023-01-13T13:12:01.935Z,50.17
2023-01-13T13:14:37.741Z,47.63
2023-01-13T13:17:28.207Z,49.00
2023-01-13T13:19:59.935Z,48.20
2023-01-13T13:22:34.551Z,48.67
2023-01-13T13:25:04.145Z,48.42
2023-01-13T13:27:33.735Z,50.50
2023-01-13T13:30:17.293Z,49.70
2023-01-13T13:32:56.489Z,45.25
2023-01-13T13:36:02.670Z,45.10
2023-01-13T13:39:16.048Z,43.30
2023-01-13T13:42:05.794Z,38.72
2023-01-13T13:45:08.124Z,38.88
2023-01-13T13:47:37.190Z,39.85
2023-01-13T13:50:23.870Z,41.13
2023-01-13T13:53:06.399Z,41.45
2023-01-13T13:55:42.972Z,42.13
2023-01-13T13:58:18.863Z,41.20
2023-01-13T14:00:50.457Z,43.35
2023-01-13T14:03:30.482Z,43.85
2023-01-13T14:06:00.976Z,43.85
2023-01-13T14:08:29.959Z,45.38
2023-01-13T14:10:57.013Z,44.38
2023-01-13T14:13:37.322Z,44.47
2023-01-13T14:16:07.619Z,46.65
2023-01-13T14:18:46.121Z,46.78
2023-01-13T14:21:12.732Z,48.10
2023-01-13T14:23:42.510Z,48.72
2023-01-13T14:26:17.337Z,48.55
2023-01-13T14:28:52.240Z,49.45
2023-01-13T14:31:23.506Z,47.53
2023-01-13T14:34:32.659Z,48.55
2023-01-13T14:37:09.586Z,46.67
2023-01-13T14:39:44.150Z,46.75
2023-01-13T14:42:16.543Z,48.55
2023-01-13T14:44:56.584Z,46.10
2023-01-13T14:47:29.774Z,47.78
2023-01-13T14:50:16.830Z,48.65
2023-01-13T14:52:50.298Z,49.88
2023-01-13T14:55:41.841Z,48.72
2023-01-13T14:58:28.751Z,44.13
2023-01-13T15:01:41.658Z,49.83
2023-01-13T15:04:43.357Z,47.95
2023-01-13T15:07:24.883Z,40.47
2023-01-13T15:09:55.635Z,44.13
2023-01-13T15:12:35.781Z,41.13
2023-01-13T15:15:21.897Z,42.20
2023-01-13T15:17:48.610Z,41.53
2023-01-13T15:20:21.219Z,45.03
2023-01-13T15:22:48.543Z,45.00
2023-01-13T15:25:15.619Z,47.00
2023-01-13T15:27:51.037Z,46.67
2023-01-13T15:30:28.774Z,44.35
2023-01-13T15:32:57.372Z,46.75
2023-01-13T15:35:30.533Z,45.10
2023-01-13T15:38:00.174Z,46.55
2023-01-13T15:40:32.526Z,45.30
2023-01-13T15:43:37.177Z,46.72
2023-01-13T15:46:32.554Z,48.72
2023-01-13T15:49:50.710Z,50.00
2023-01-13T15:52:26.805Z,49.40
2023-01-13T15:55:03.811Z,50.75
2023-01-13T15:57:48.617Z,53.30
2023-01-13T16:00:23.761Z,53.95
2023-01-13T16:03:00.793Z,52.38
2023-01-13T16:05:37.015Z,54.72
2023-01-13T16:08:03.897Z,53.78
2023-01-13T16:10:31.159Z,55.03
2023-01-13T16:12:59.354Z,57.47
2023-01-13T16:15:39.110Z,53.47
2023-01-13T16:18:19.887Z,51.83
2023-01-13T16:20:53.239Z,54.50
2023-01-13T16:23:23.615Z,54.38
2023-01-13T16:25:51.084Z,55.35
2023-01-13T16:28:31.736Z,56.97
2023-01-13T16:30:59.387Z,58.27
2023-01-13T16:33:34.121Z,56.17
2023-01-13T16:36:13.732Z,57.10
2023-01-13T16:38:48.326Z,57.13
2023-01-13T16:41:17.630Z,54.25
2023-01-13T16:43:47.305Z,55.75
2023-01-13T16:46:17.599Z,56.80
2023-01-13T16:48:51.031Z,57.33
2023-01-13T16:51:18.109Z,55.20
2023-01-13T16:53:45.021Z,57.63
2023-01-13T16:56:30.029Z,56.00
2023-01-13T16:59:04.825Z,58.67
2023-01-13T17:01:42.284Z,60.58
2023-01-13T17:04:20.620Z,57.08
2023-01-13T17:07:08.543Z,61.47
2023-01-13T17:09:35.569Z,62.78
2023-01-13T17:12:02.418Z,61.65
2023-01-13T17:14:29.399Z,62.33
2023-01-13T17:16:59.962Z,61.17
2023-01-13T17:19:34.752Z,64.72
2023-01-13T17:22:02.326Z,64.85
2023-01-13T17:24:31.192Z,67.25
2023-01-13T17:27:08.089Z,65.88
2023-01-13T17:29:34.795Z,70.90
2023-01-13T17:32:02.204Z,67.30
2023-01-13T17:34:41.385Z,68.97
2023-01-13T17:37:16.225Z,69.88
2023-01-13T17:39:51.255Z,71.55
2023-01-13T17:42:18.427Z,68.50
2023-01-13T17:44:45.425Z,65.03
2023-01-13T17:47:12.389Z,71.20
2023-01-13T17:49:39.116Z,71.78
2023-01-13T17:52:06.730Z,71.10
2023-01-13T17:54:33.482Z,68.95
2023-01-13T17:57:08.484Z,68.70
2023-01-13T17:59:38.506Z,66.22
2023-01-13T18:02:05.596Z,68.78
2023-01-13T18:04:32.521Z,71.60
2023-01-13T18:07:16.587Z,67.95
2023-01-13T18:09:53.553Z,70.80
2023-01-13T18:12:20.282Z,72.07
2023-01-13T18:14:46.920Z,68.57
2023-01-13T18:17:17.660Z,68.97
2023-01-13T18:20:02.756Z,63.38
2023-01-13T18:22:56.980Z,62.60
2023-01-13T18:25:43.646Z,66.57
2023-01-13T18:28:19.381Z,60.03
2023-01-13T18:30:53.912Z,65.45
2023-01-13T18:33:27.452Z,64.47
2023-01-13T18:36:02.581Z,62.65
2023-01-13T18:38:40.543Z,67.43
2023-01-13T18:41:30.644Z,63.50
2023-01-13T18:44:00.042Z,62.55
2023-01-13T18:46:38.050Z,63.75
2023-01-13T18:49:14.267Z,65.00
2023-01-13T18:51:49.463Z,65.93
2023-01-13T18:54:28.351Z,63.90
2023-01-13T18:56:57.373Z,64.90
2023-01-13T18:59:26.673Z,66.57
2023-01-13T19:02:16.895Z,64.72
2023-01-13T19:04:53.764Z,63.83
2023-01-13T19:07:29.463Z,64.57
2023-01-13T19:10:05.325Z,65.28
2023-01-13T19:12:45.923Z,63.42
2023-01-13T19:15:21.542Z,61.37
2023-01-13T19:17:57.758Z,61.83
2023-01-13T19:20:38.457Z,63.60
2023-01-13T19:23:15.596Z,62.45
2023-01-13T19:25:42.275Z,59.92
2023-01-13T19:28:14.384Z,62.10
2023-01-13T19:33:23.701Z,59.85
2023-01-13T19:35:56.424Z,63.63
2023-01-13T19:38:31.235Z,61.63
2023-01-13T19:41:11.346Z,63.42
2023-01-13T19:43:59.959Z,61.05
2023-01-13T19:46:33.238Z,62.88
2023-01-13T19:49:08.544Z,60.58
2023-01-13T19:51:36.305Z,63.20
2023-01-13T19:54:07.243Z,61.35
2023-01-13T19:56:39.491Z,65.90
2023-01-13T19:59:56.101Z,66.80
2023-01-13T20:02:35.738Z,64.93
2023-01-13T20:05:11.774Z,61.28
2023-01-13T20:07:46.168Z,65.85
2023-01-13T20:10:13.591Z,65.63
2023-01-13T20:12:41.829Z,62.63
2023-01-13T20:15:09.861Z,64.53
2023-01-13T20:17:38.273Z,62.78
2023-01-13T20:20:05.463Z,61.25
2023-01-13T20:22:32.560Z,63.60
2023-01-13T20:25:09.562Z,61.65
2023-01-13T20:27:44.771Z,59.80
2023-01-13T20:30:19.564Z,57.80
2023-01-13T20:32:55.809Z,62.03
2023-01-13T20:35:31.541Z,60.72
2023-01-13T20:38:07.401Z,60.08
2023-01-13T20:40:39.733Z,62.28
2023-01-13T20:43:09.316Z,59.40
2023-01-13T20:45:45.515Z,58.33
2023-01-13T20:48:21.060Z,62.65
2023-01-13T20:50:58.937Z,60.05
2023-01-13T20:53:32.383Z,58.15
2023-01-13T20:56:07.415Z,60.33
2023-01-13T20:58:37.337Z,59.28
2023-01-13T21:01:05.347Z,57.28
2023-01-13T21:03:43.229Z,57.03
2023-01-13T21:06:20.525Z,58.60
2023-01-13T21:08:56.204Z,58.05
2023-01-13T21:11:43.870Z,58.45
2023-01-13T21:14:47.443Z,60.03
2023-01-13T21:17:46.096Z,55.10
2023-01-13T21:20:16.724Z,59.25
2023-01-13T21:22:55.042Z,59.45
2023-01-13T21:25:29.748Z,59.50
2023-01-13T21:28:06.298Z,60.55
2023-01-13T21:30:39.797Z,56.42
2023-01-13T21:33:15.552Z,58.97
2023-01-13T21:35:49.494Z,55.80
2023-01-13T21:38:30.318Z,58.55
2023-01-13T21:41:22.439Z,57.78
2023-01-13T21:44:10.422Z,55.25
2023-01-13T21:46:59.251Z,55.95
2023-01-13T21:49:33.437Z,55.80
2023-01-13T21:52:08.043Z,59.78
2023-01-13T21:54:59.290Z,58.97
2023-01-13T21:57:33.826Z,59.10
2023-01-13T22:00:08.633Z,61.33
2023-01-13T22:02:38.367Z,59.15
2023-01-13T22:05:18.470Z,61.45
2023-01-13T22:07:52.348Z,59.70
2023-01-13T22:10:29.942Z,59.95
2023-01-13T22:12:59.927Z,61.40
2023-01-13T22:15:29.743Z,57.83
2023-01-13T22:17:57.228Z,59.25
2023-01-13T22:20:24.374Z,59.55
2023-01-13T22:22:51.308Z,57.83
2023-01-13T22:25:29.189Z,57.10
2023-01-13T22:28:07.025Z,54.30
2023-01-13T22:30:42.730Z,55.33
2023-01-13T22:33:13.029Z,54.75
2023-01-13T22:35:40.445Z,55.63
2023-01-13T22:38:07.665Z,53.92
2023-01-13T22:40:34.343Z,54.72
2023-01-13T22:43:01.143Z,55.08
2023-01-13T22:45:38.464Z,54.28
2023-01-13T22:48:13.380Z,53.10
2023-01-13T22:50:48.345Z,49.60
2023-01-13T22:53:15.743Z,52.90
2023-01-13T22:55:44.361Z,53.42
2023-01-13T22:58:18.665Z,52.75
2023-01-13T23:00:46.915Z,52.63
2023-01-13T23:03:13.916Z,54.00
2023-01-13T23:05:45.991Z,57.72
2023-01-13T23:10:41.115Z,56.67
2023-01-13T23:13:13.214Z,56.38
2023-01-13T23:18:16.784Z,56.22
2023-01-13T23:20:43.693Z,57.95
2023-01-13T23:23:10.654Z,58.65
2023-01-13T23:25:38.742Z,58.30
2023-01-13T23:28:05.866Z,59.13
2023-01-13T23:30:45.125Z,57.60
2023-01-13T23:33:12.398Z,61.08
2023-01-13T23:35:39.293Z,58.05
2023-01-13T23:38:13.976Z,61.03
2023-01-13T23:40:49.298Z,64.72
2023-01-13T23:43:27.587Z,62.25
2023-01-13T23:46:12.799Z,60.88
2023-01-13T23:48:41.033Z,63.70
2023-01-13T23:51:11.639Z,60.10
2023-01-13T23:53:46.188Z,61.97
2023-01-13T23:56:21.609Z,63.65
2023-01-13T23:58:54.027Z,62.70
